createdAt,value
2022-08-22T00:00:11.342Z,11.80
2022-08-22T00:01:56.942Z,13.27
2022-08-22T00:02:55.670Z,13.27
2022-08-22T00:02:58.682Z,11.89
2022-08-22T00:03:02.939Z,9.69
2022-08-22T00:03:26.969Z,14.20
2022-08-22T00:04:58.507Z,12.23
2022-08-22T00:06:39.632Z,12.66
2022-08-22T00:09:29.460Z,12.99
2022-08-22T00:11:10.154Z,13.31
2022-08-22T00:12:43.715Z,14.79
2022-08-22T00:14:11.825Z,12.91
2022-08-22T00:17:31.037Z,14.38
2022-08-22T00:20:35.476Z,12.75
2022-08-22T00:23:29.565Z,12.28
2022-08-22T00:25:24.710Z,14.17
2022-08-22T00:26:46.440Z,12.21
2022-08-22T00:28:14.396Z,11.62
2022-08-22T01:54:09.742Z,14.40
2022-08-22T03:04:33.811Z,14.56
2022-08-22T03:06:01.870Z,14.14
2022-08-22T03:08:47.301Z,11.46
2022-08-22T03:10:15.630Z,13.28
2022-08-22T03:11:38.189Z,13.87
2022-08-22T03:13:13.174Z,13.87
2022-08-22T03:15:02.133Z,11.14
2022-08-22T03:16:37.253Z,12.01
2022-08-22T03:18:05.044Z,11.56
2022-08-22T03:19:45.122Z,13.38
2022-08-22T03:21:17.237Z,12.25
2022-08-22T03:22:51.382Z,10.98
2022-08-22T03:24:38.981Z,13.69
2022-08-22T03:26:18.730Z,12.32
2022-08-22T03:27:45.346Z,15.19
2022-08-22T03:29:09.409Z,14.33
2022-08-22T03:30:43.081Z,16.49
2022-08-22T03:32:08.520Z,15.54
2022-08-22T03:33:30.514Z,13.70
2022-08-22T03:35:06.586Z,12.57
2022-08-22T03:36:29.074Z,13.31
2022-08-22T03:37:52.192Z,13.63
2022-08-22T03:40:44.720Z,11.78
2022-08-22T03:42:21.967Z,14.77
2022-08-22T03:44:17.278Z,15.34
2022-08-22T03:46:01.036Z,13.98
2022-08-22T03:49:09.594Z,15.92
2022-08-22T03:50:51.122Z,13.13
2022-08-22T03:52:46.844Z,17.36
2022-08-22T03:56:07.019Z,13.49
2022-08-22T03:57:51.213Z,17.70
2022-08-22T03:59:33.160Z,11.53
2022-08-22T04:02:51.210Z,17.89
2022-08-22T04:04:38.128Z,14.52
2022-08-22T04:06:26.108Z,13.88
2022-08-22T04:09:47.916Z,14.81
2022-08-22T04:11:14.192Z,15.33
2022-08-22T04:13:04.830Z,12.19
2022-08-22T04:14:51.423Z,14.97
2022-08-22T04:16:46.206Z,12.38
2022-08-22T04:18:25.555Z,13.56
2022-08-22T04:20:26.475Z,15.24
2022-08-22T04:22:08.790Z,13.49
2022-08-22T04:23:49.309Z,13.89
2022-08-22T04:26:36.562Z,13.68
2022-08-22T04:28:16.636Z,15.16
2022-08-22T04:31:05.854Z,14.87
2022-08-22T04:34:02.338Z,16.05
2022-08-22T04:35:36.196Z,16.54
2022-08-22T04:37:01.037Z,13.54
2022-08-22T04:38:32.450Z,14.01
2022-08-22T04:40:03.117Z,16.07
2022-08-22T04:41:50.882Z,15.30
2022-08-22T04:43:30.331Z,16.35
2022-08-22T05:05:38.546Z,14.67
2022-08-22T05:07:24.522Z,17.21
2022-08-22T05:08:45.989Z,19.13
2022-08-22T05:10:25.817Z,16.13
2022-08-22T05:28:22.782Z,17.66
2022-08-22T05:33:30.397Z,19.62
2022-08-22T05:34:52.689Z,17.49
2022-08-22T05:36:40.652Z,14.70
2022-08-22T05:38:04.850Z,15.27
2022-08-22T05:39:27.834Z,16.54
2022-08-22T05:41:00.594Z,15.23
2022-08-22T05:43:46.503Z,22.45
2022-08-22T05:45:12.250Z,21.74
2022-08-22T05:48:40.796Z,45.27
2022-08-22T05:50:10.944Z,21.97
2022-08-22T06:05:09.961Z,26.84
2022-08-22T06:08:33.519Z,22.22
2022-08-22T06:22:08.277Z,21.19
2022-08-22T06:25:38.775Z,27.59
2022-08-22T06:27:10.888Z,21.69
2022-08-22T06:30:21.997Z,19.84
2022-08-22T07:12:34.585Z,19.24
2022-08-22T07:25:35.138Z,22.74
2022-08-22T07:51:39.766Z,19.14
2022-08-22T08:08:52.700Z,19.45
2022-08-22T08:12:17.916Z,19.27
2022-08-22T08:17:39.106Z,16.87
2022-08-22T08:41:08.193Z,18.26
2022-08-22T09:18:42.579Z,16.18
2022-08-22T09:34:57.860Z,15.17
2022-08-22T10:07:36.710Z,11.72
2022-08-22T10:11:31.277Z,13.83
2022-08-22T10:25:13.062Z,10.92
2022-08-22T10:28:25.033Z,17.41
2022-08-22T10:59:00.948Z,9.40
2022-08-22T11:00:46.370Z,14.96
2022-08-22T11:14:28.839Z,10.02
2022-08-22T11:18:22.978Z,12.53
2022-08-22T11:49:44.756Z,17.19
2022-08-22T11:51:45.688Z,19.81
2022-08-22T12:07:14.456Z,12.93
2022-08-22T12:44:02.301Z,13.49
2022-08-22T12:47:32.041Z,12.94
2022-08-22T12:49:07.615Z,12.17
2022-08-22T12:50:53.076Z,8.88
2022-08-22T13:05:57.241Z,7.99
2022-08-22T13:07:33.148Z,12.02
2022-08-22T13:08:58.009Z,7.33
2022-08-22T13:12:34.948Z,14.43
2022-08-22T13:14:00.066Z,10.17
2022-08-22T13:15:46.154Z,15.76
2022-08-22T13:17:25.032Z,8.54
2022-08-22T13:18:53.616Z,9.06
2022-08-22T13:36:21.463Z,11.96
2022-08-22T13:39:36.434Z,14.76
2022-08-22T13:44:46.873Z,17.39
2022-08-22T13:46:19.111Z,12.83
2022-08-22T13:47:51.547Z,14.16
2022-08-22T14:15:52.690Z,18.94
2022-08-22T14:19:49.391Z,11.46
2022-08-22T14:21:48.831Z,15.38
2022-08-22T14:24:45.992Z,15.39
2022-08-22T14:26:12.741Z,16.01
2022-08-22T14:27:47.309Z,17.49
2022-08-22T14:32:42.414Z,23.13
2022-08-22T14:34:09.757Z,14.04
2022-08-22T14:35:44.646Z,16.76
2022-08-22T14:37:17.396Z,13.48
2022-08-22T14:38:52.170Z,21.54
2022-08-22T14:40:29.813Z,18.44
2022-08-22T14:55:15.481Z,23.35
2022-08-22T14:56:39.237Z,15.04
2022-08-22T14:59:52.035Z,15.54
2022-08-22T15:01:16.837Z,15.82
2022-08-22T15:02:42.207Z,13.42
2022-08-22T15:04:07.834Z,16.63
2022-08-22T15:05:31.683Z,12.88
2022-08-22T15:07:00.378Z,16.34
2022-08-22T15:08:33.834Z,17.95
2022-08-22T15:10:15.440Z,11.82
2022-08-22T15:11:42.039Z,15.99
2022-08-22T15:13:05.459Z,16.47
2022-08-22T15:14:39.806Z,20.16
2022-08-22T15:16:18.358Z,26.13
2022-08-22T15:17:44.794Z,17.41
2022-08-22T15:19:27.234Z,17.42
2022-08-22T15:20:52.369Z,15.66
2022-08-22T15:22:25.687Z,14.44
2022-08-22T15:23:47.675Z,21.57
2022-08-22T15:26:55.416Z,18.16
2022-08-22T15:28:20.452Z,18.27
2022-08-22T15:29:51.124Z,17.60
2022-08-22T15:31:17.113Z,22.34
2022-08-22T15:32:43.046Z,15.54
2022-08-22T15:34:07.343Z,24.11
2022-08-22T15:35:30.821Z,15.64
2022-08-22T15:37:17.262Z,16.24
2022-08-22T15:38:50.021Z,20.73
2022-08-22T15:41:48.978Z,16.55
2022-08-22T15:43:34.880Z,18.83
2022-08-22T15:44:55.679Z,14.19
2022-08-22T15:46:24.721Z,22.41
2022-08-22T15:47:49.899Z,17.18
2022-08-22T15:49:24.005Z,20.22
2022-08-22T15:50:59.797Z,20.04
2022-08-22T15:52:28.017Z,19.06
2022-08-22T15:54:00.996Z,16.11
2022-08-22T15:55:25.367Z,19.54
2022-08-22T15:58:22.817Z,15.94
2022-08-22T16:01:20.628Z,19.79
2022-08-22T16:02:57.380Z,18.07
2022-08-22T16:06:48.332Z,18.74
2022-08-22T16:08:15.852Z,17.57
2022-08-22T16:09:46.260Z,16.59
2022-08-22T16:11:15.181Z,16.43
2022-08-22T16:12:44.585Z,16.06
2022-08-22T16:14:23.748Z,23.73
2022-08-22T16:15:56.574Z,17.75
2022-08-22T16:17:33.002Z,17.95
2022-08-22T16:19:01.474Z,19.62
2022-08-22T16:20:28.603Z,26.76
2022-08-22T16:21:58.768Z,22.01
2022-08-22T16:23:20.408Z,21.42
2022-08-22T16:24:57.191Z,24.24
2022-08-22T16:28:04.190Z,19.58
2022-08-22T16:29:41.098Z,18.90
2022-08-22T16:31:01.008Z,18.95
2022-08-22T16:32:25.014Z,24.34
2022-08-22T16:33:49.393Z,21.73
2022-08-22T16:35:11.558Z,26.97
2022-08-22T16:36:43.378Z,14.57
2022-08-22T16:38:05.389Z,19.26
2022-08-22T16:39:32.998Z,15.74
2022-08-22T16:40:54.786Z,20.14
2022-08-22T16:42:20.105Z,21.06
2022-08-22T16:43:52.615Z,16.97
2022-08-22T16:45:13.058Z,16.85
2022-08-22T16:46:42.088Z,16.46
2022-08-22T16:48:34.706Z,18.51
2022-08-22T16:50:06.319Z,19.68
2022-08-22T16:51:29.743Z,18.11
2022-08-22T16:52:57.550Z,19.69
2022-08-22T16:54:22.916Z,18.08
2022-08-22T16:58:04.898Z,19.67
2022-08-22T16:59:27.329Z,21.82
2022-08-22T17:02:39.549Z,15.32
2022-08-22T17:04:27.445Z,18.79
2022-08-22T17:07:26.485Z,15.73
2022-08-22T17:08:58.690Z,23.77
2022-08-22T17:10:47.998Z,19.03
2022-08-22T17:12:15.852Z,18.86
2022-08-22T17:13:40.952Z,17.06
2022-08-22T17:15:22.849Z,19.42
2022-08-22T17:16:58.223Z,23.92
2022-08-22T17:18:42.304Z,16.94
2022-08-22T17:20:19.823Z,19.83
2022-08-22T17:21:57.391Z,25.44
2022-08-22T17:23:38.204Z,24.29
2022-08-22T17:25:17.290Z,23.76
2022-08-22T17:26:54.322Z,23.24
2022-08-22T17:28:41.496Z,18.92
2022-08-22T17:31:55.611Z,27.96
2022-08-22T17:33:54.261Z,24.28
2022-08-22T17:35:39.926Z,21.35
2022-08-22T17:37:08.403Z,21.15
2022-08-22T17:38:49.056Z,22.56
2022-08-22T17:40:37.481Z,27.14
2022-08-22T17:42:08.557Z,21.63
2022-08-22T17:43:48.701Z,16.76
2022-08-22T17:45:28.074Z,30.91
2022-08-22T17:48:47.479Z,25.01
2022-08-22T17:50:20.817Z,17.09
2022-08-22T17:52:00.235Z,17.34
2022-08-22T17:53:31.793Z,19.70
2022-08-22T17:57:05.138Z,23.24
2022-08-22T17:58:33.591Z,17.83
2022-08-22T18:01:12.045Z,22.58
2022-08-22T18:04:06.288Z,25.56
2022-08-22T18:05:31.754Z,23.19
2022-08-22T18:06:56.966Z,21.59
2022-08-22T18:09:13.437Z,22.48
2022-08-22T18:11:18.055Z,19.33
2022-08-22T18:12:49.634Z,24.84
2022-08-22T18:14:48.451Z,21.44
2022-08-22T18:17:45.036Z,24.57
2022-08-22T18:19:27.987Z,21.57
2022-08-22T18:20:58.865Z,26.43
2022-08-22T18:22:29.497Z,23.81
2022-08-22T18:23:57.512Z,26.94
2022-08-22T18:25:22.495Z,20.83
2022-08-22T18:26:47.704Z,20.14
2022-08-22T18:28:12.570Z,22.81
2022-08-22T18:29:42.326Z,21.99
2022-08-22T18:31:06.705Z,29.27
2022-08-22T18:32:43.244Z,26.01
2022-08-22T18:34:09.067Z,24.52
2022-08-22T18:35:41.342Z,22.31
2022-08-22T18:37:25.020Z,20.26
2022-08-22T18:39:08.136Z,19.89
2022-08-22T18:40:45.524Z,24.04
2022-08-22T18:43:36.958Z,18.80
2022-08-22T18:45:00.224Z,23.49
2022-08-22T18:46:31.557Z,17.53
2022-08-22T18:49:33.088Z,24.74
2022-08-22T18:51:16.207Z,25.96
2022-08-22T18:52:38.593Z,29.27
2022-08-22T18:54:07.080Z,28.66
2022-08-22T18:55:41.314Z,31.42
2022-08-22T18:59:13.052Z,24.87
2022-08-22T19:01:02.209Z,25.22
2022-08-22T19:02:39.271Z,21.04
2022-08-22T19:04:33.626Z,23.41
2022-08-22T19:06:30.321Z,29.92
2022-08-22T19:08:23.747Z,16.30
2022-08-22T19:10:09.079Z,26.25
2022-08-22T19:11:42.301Z,27.92
2022-08-22T19:14:53.302Z,28.71
2022-08-22T19:16:48.047Z,18.72
2022-08-22T19:18:28.401Z,28.05
2022-08-22T19:20:05.606Z,25.18
2022-08-22T19:21:34.200Z,28.61
2022-08-22T19:23:33.043Z,26.36
2022-08-22T19:25:09.915Z,26.17
2022-08-22T19:26:43.260Z,26.48
2022-08-22T19:29:40.010Z,25.28
2022-08-22T19:31:25.934Z,23.14
2022-08-22T19:32:56.752Z,23.45
2022-08-22T19:34:30.823Z,22.21
2022-08-22T19:35:56.694Z,23.50
2022-08-22T19:37:32.457Z,28.49
2022-08-22T19:39:00.971Z,20.84
2022-08-22T19:40:46.354Z,25.12
2022-08-22T19:42:12.893Z,23.74
2022-08-22T19:43:37.947Z,22.72
2022-08-22T19:45:19.699Z,23.55
2022-08-22T19:46:41.592Z,21.64
2022-08-22T19:48:13.621Z,33.19
2022-08-22T19:50:59.813Z,22.82
2022-08-22T19:52:35.020Z,23.08
2022-08-22T19:54:17.025Z,26.36
2022-08-22T19:55:47.840Z,20.65
2022-08-22T19:57:14.452Z,23.28
2022-08-22T19:58:42.391Z,25.02
2022-08-22T20:00:19.098Z,33.42
2022-08-22T20:03:34.251Z,24.44
2022-08-22T20:06:45.741Z,23.65
2022-08-22T20:09:52.076Z,26.07
2022-08-22T20:12:45.104Z,26.02
2022-08-22T20:14:30.120Z,20.03
2022-08-22T20:16:12.151Z,26.76
2022-08-22T20:17:39.640Z,15.79
2022-08-22T20:19:10.814Z,22.22
2022-08-22T20:20:37.841Z,17.41
2022-08-22T20:21:59.426Z,22.01
2022-08-22T20:23:29.204Z,18.62
2022-08-22T20:25:07.591Z,21.36
2022-08-22T20:26:33.404Z,20.67
2022-08-22T20:29:17.883Z,21.60
2022-08-22T20:30:44.671Z,19.43
2022-08-22T20:32:06.189Z,18.33
2022-08-22T20:34:45.855Z,26.76
2022-08-22T20:36:27.739Z,22.04
2022-08-22T20:38:05.303Z,26.54
2022-08-22T20:39:10.022Z,20.22
2022-08-22T20:42:08.122Z,24.08
2022-08-22T20:43:41.731Z,21.49
2022-08-22T20:45:12.026Z,21.41
2022-08-22T20:48:03.911Z,23.86
2022-08-22T20:49:33.855Z,24.86
2022-08-22T20:51:04.121Z,25.26
2022-08-22T20:52:40.666Z,21.24
2022-08-22T20:54:10.113Z,16.89
2022-08-22T20:55:32.023Z,23.34
2022-08-22T20:56:58.555Z,24.22
2022-08-22T20:58:23.712Z,23.39
2022-08-22T21:00:05.020Z,25.20
2022-08-22T21:01:31.574Z,22.97
2022-08-22T21:02:58.612Z,21.62
2022-08-22T21:04:19.996Z,23.14
2022-08-22T21:05:43.963Z,22.72
2022-08-22T21:07:06.645Z,25.32
2022-08-22T21:08:28.996Z,23.27
2022-08-22T21:10:04.060Z,20.72
2022-08-22T21:11:27.625Z,25.87
2022-08-22T21:13:19.755Z,28.16
2022-08-22T21:14:42.219Z,23.59
2022-08-22T21:17:48.836Z,22.49
2022-08-22T21:19:17.824Z,28.58
2022-08-22T21:20:41.734Z,21.33
2022-08-22T21:22:20.528Z,22.06
2022-08-22T21:23:42.757Z,22.52
2022-08-22T21:25:06.424Z,19.78
2022-08-22T21:27:44.696Z,24.02
2022-08-22T21:29:09.331Z,25.18
2022-08-22T21:30:31.286Z,20.91
2022-08-22T21:32:04.458Z,22.73
2022-08-22T21:33:23.759Z,20.84
2022-08-22T21:34:48.486Z,21.87
2022-08-22T21:36:14.091Z,24.63
2022-08-22T21:37:40.050Z,23.22
2022-08-22T21:39:04.149Z,28.77
2022-08-22T21:40:34.994Z,31.33
2022-08-22T21:42:03.651Z,26.00
2022-08-22T21:46:11.988Z,23.09
2022-08-22T21:52:04.523Z,20.68
2022-08-22T21:53:28.330Z,24.37
2022-08-22T21:54:50.123Z,23.94
2022-08-22T21:56:13.923Z,27.63
2022-08-22T21:57:36.579Z,32.09
2022-08-22T21:59:21.141Z,28.64
2022-08-22T22:00:58.093Z,28.03
2022-08-22T22:02:36.897Z,24.47
2022-08-22T22:03:59.049Z,24.62
2022-08-22T22:05:20.226Z,28.41
2022-08-22T22:06:43.071Z,25.59
2022-08-22T22:08:04.857Z,35.02
2022-08-22T22:09:26.138Z,28.28
2022-08-22T22:10:48.982Z,29.03
2022-08-22T22:12:10.655Z,24.37
2022-08-22T22:13:32.681Z,23.88
2022-08-22T22:14:55.088Z,27.41
2022-08-22T22:16:21.704Z,31.08
2022-08-22T22:17:43.136Z,24.29
2022-08-22T22:19:07.615Z,24.68
2022-08-22T22:20:29.317Z,26.26
2022-08-22T22:21:53.202Z,27.91
2022-08-22T22:23:17.654Z,26.91
2022-08-22T22:24:41.704Z,39.99
2022-08-22T22:26:04.112Z,28.85
2022-08-22T22:27:26.077Z,38.77
2022-08-22T22:28:47.638Z,31.67
2022-08-22T22:31:25.046Z,29.62
2022-08-22T22:32:47.384Z,30.90
2022-08-22T22:34:10.437Z,34.94
2022-08-22T22:35:32.100Z,41.53
2022-08-22T22:36:57.083Z,37.83
2022-08-22T22:38:23.365Z,30.88
2022-08-22T22:39:41.795Z,33.40
2022-08-22T22:41:03.110Z,27.29
2022-08-22T22:42:24.777Z,37.76
2022-08-22T22:43:46.064Z,40.54
2022-08-22T22:45:10.166Z,36.53
2022-08-22T22:46:32.764Z,33.23
2022-08-22T22:47:54.326Z,32.38
2022-08-22T22:49:17.321Z,29.90
2022-08-22T22:50:38.929Z,33.00
2022-08-22T22:52:01.154Z,38.06
2022-08-22T22:54:46.881Z,39.27
2022-08-22T22:56:13.134Z,38.19
2022-08-22T22:57:42.694Z,34.06
2022-08-22T22:59:12.607Z,33.15
2022-08-22T23:00:23.115Z,36.50
2022-08-22T23:02:04.545Z,32.57
2022-08-22T23:03:26.080Z,32.04
2022-08-22T23:04:50.871Z,38.03
2022-08-22T23:06:17.782Z,37.27
2022-08-22T23:07:39.238Z,35.87
2022-08-22T23:09:00.637Z,28.12
2022-08-22T23:10:23.134Z,37.01
2022-08-22T23:11:44.420Z,41.87
2022-08-22T23:13:05.678Z,34.89
2022-08-22T23:14:27.824Z,37.04
2022-08-22T23:15:49.452Z,31.36
2022-08-22T23:17:11.143Z,35.91
2022-08-22T23:18:32.307Z,37.81
2022-08-22T23:33:11.154Z,25.29
2022-08-22T23:34:35.951Z,34.23
2022-08-22T23:35:59.947Z,39.84
2022-08-22T23:37:21.526Z,37.80
2022-08-22T23:38:42.970Z,39.69
2022-08-22T23:40:07.674Z,46.47
2022-08-22T23:41:29.950Z,37.66
2022-08-22T23:42:53.542Z,39.81
2022-08-22T23:44:17.473Z,38.19
2022-08-22T23:45:38.563Z,39.60
2022-08-22T23:47:00.168Z,30.83
2022-08-22T23:48:22.685Z,39.33
2022-08-22T23:49:44.712Z,38.25
2022-08-22T23:51:07.965Z,36.33
2022-08-22T23:52:29.352Z,40.00
2022-08-22T23:53:51.630Z,38.94
2022-08-22T23:55:13.690Z,35.61
2022-08-22T23:57:52.759Z,33.51
2022-08-22T23:59:17.341Z,37.75
